sensor_id;sensor_type;location;lat;lon;timestamp;temperature;humidity
10278;DHT22;5184;51.376;7.148;2024-01-30T00:00:47;6.40;99.90
10278;DHT22;5184;51.376;7.148;2024-01-30T00:03:13;6.40;99.90
10278;DHT22;5184;51.376;7.148;2024-01-30T00:05:41;6.50;99.90
10278;DHT22;5184;51.376;7.148;2024-01-30T00:08:07;6.50;99.90
10278;DHT22;5184;51.376;7.148;2024-01-30T00:10:34;6.40;99.90
10278;DHT22;5184;51.376;7.148;2024-01-30T00:13:01;6.40;99.90
10278;DHT22;5184;51.376;7.148;2024-01-30T00:15:27;6.40;99.90
10278;DHT22;5184;51.376;7.148;2024-01-30T00:17:54;6.50;99.90
10278;DHT22;5184;51.376;7.148;2024-01-30T00:20:20;6.60;99.90
10278;DHT22;5184;51.376;7.148;2024-01-30T00:22:47;6.60;99.90
10278;DHT22;5184;51.376;7.148;2024-01-30T00:25:14;6.60;99.90
10278;DHT22;5184;51.376;7.148;2024-01-30T00:27:40;6.60;99.90
10278;DHT22;5184;51.376;7.148;2024-01-30T00:30:07;6.60;99.90
10278;DHT22;5184;51.376;7.148;2024-01-30T00:32:34;6.70;99.90
10278;DHT22;5184;51.376;7.148;2024-01-30T00:35:01;6.60;99.90
10278;DHT22;5184;51.376;7.148;2024-01-30T00:37:28;6.80;99.90
10278;DHT22;5184;51.376;7.148;2024-01-30T00:39:55;6.80;99.90
10278;DHT22;5184;51.376;7.148;2024-01-30T00:42:22;6.80;99.90
10278;DHT22;5184;51.376;7.148;2024-01-30T00:44:49;6.80;99.90
10278;DHT22;5184;51.376;7.148;2024-01-30T00:47:16;6.70;99.90
10278;DHT22;5184;51.376;7.148;2024-01-30T00:49:42;6.70;99.90
10278;DHT22;5184;51.376;7.148;2024-01-30T00:52:09;6.60;99.90
10278;DHT22;5184;51.376;7.148;2024-01-30T00:54:36;6.50;99.90
10278;DHT22;5184;51.376;7.148;2024-01-30T00:57:02;6.50;99.90
10278;DHT22;5184;51.376;7.148;2024-01-30T00:59:29;6.40;99.90
10278;DHT22;5184;51.376;7.148;2024-01-30T01:01:55;6.40;99.90
10278;DHT22;5184;51.376;7.148;2024-01-30T01:04:22;6.30;99.90
10278;DHT22;5184;51.376;7.148;2024-01-30T01:06:49;6.40;99.90
10278;DHT22;5184;51.376;7.148;2024-01-30T01:09:15;6.30;99.90
10278;DHT22;5184;51.376;7.148;2024-01-30T01:11:42;6.40;99.90
10278;DHT22;5184;51.376;7.148;2024-01-30T01:14:08;6.40;99.90
10278;DHT22;5184;51.376;7.148;2024-01-30T01:16:35;6.40;99.90
10278;DHT22;5184;51.376;7.148;2024-01-30T01:19:02;6.40;99.90
10278;DHT22;5184;51.376;7.148;2024-01-30T01:21:28;6.50;99.90
10278;DHT22;5184;51.376;7.148;2024-01-30T01:23:56;6.50;99.90
10278;DHT22;5184;51.376;7.148;2024-01-30T01:26:22;6.60;99.90
10278;DHT22;5184;51.376;7.148;2024-01-30T01:28:50;6.60;99.90
10278;DHT22;5184;51.376;7.148;2024-01-30T01:31:17;6.50;99.90
10278;DHT22;5184;51.376;7.148;2024-01-30T01:33:44;6.40;99.90
10278;DHT22;5184;51.376;7.148;2024-01-30T01:36:11;6.40;99.90
10278;DHT22;5184;51.376;7.148;2024-01-30T01:38:38;6.40;99.90
10278;DHT22;5184;51.376;7.148;2024-01-30T01:41:04;6.40;99.90
10278;DHT22;5184;51.376;7.148;2024-01-30T01:43:31;6.40;99.90
10278;DHT22;5184;51.376;7.148;2024-01-30T01:45:57;6.40;99.90
10278;DHT22;5184;51.376;7.148;2024-01-30T01:48:24;6.40;99.90
10278;DHT22;5184;51.376;7.148;2024-01-30T01:50:51;6.30;99.90
10278;DHT22;5184;51.376;7.148;2024-01-30T01:53:18;6.30;99.90
10278;DHT22;5184;51.376;7.148;2024-01-30T01:55:45;6.30;99.90
10278;DHT22;5184;51.376;7.148;2024-01-30T01:58:11;6.30;99.90
10278;DHT22;5184;51.376;7.148;2024-01-30T02:00:38;6.30;99.90
10278;DHT22;5184;51.376;7.148;2024-01-30T02:03:04;6.30;99.90
10278;DHT22;5184;51.376;7.148;2024-01-30T02:05:31;6.30;99.90
10278;DHT22;5184;51.376;7.148;2024-01-30T02:07:57;6.30;99.90
10278;DHT22;5184;51.376;7.148;2024-01-30T02:10:25;6.40;99.90
10278;DHT22;5184;51.376;7.148;2024-01-30T02:12:52;6.50;99.90
10278;DHT22;5184;51.376;7.148;2024-01-30T02:15:19;6.50;99.90
10278;DHT22;5184;51.376;7.148;2024-01-30T02:17:46;8.60;99.90
10278;DHT22;5184;51.376;7.148;2024-01-30T02:20:14;6.50;99.90
10278;DHT22;5184;51.376;7.148;2024-01-30T02:22:40;6.50;99.90
10278;DHT22;5184;51.376;7.148;2024-01-30T02:25:07;6.60;99.90
10278;DHT22;5184;51.376;7.148;2024-01-30T02:27:34;6.70;99.90
10278;DHT22;5184;51.376;7.148;2024-01-30T02:30:01;6.70;99.90
10278;DHT22;5184;51.376;7.148;2024-01-30T02:32:28;6.70;99.90
10278;DHT22;5184;51.376;7.148;2024-01-30T02:34:54;6.80;99.90
10278;DHT22;5184;51.376;7.148;2024-01-30T02:37:21;6.80;99.90
10278;DHT22;5184;51.376;7.148;2024-01-30T02:39:48;6.80;99.90
10278;DHT22;5184;51.376;7.148;2024-01-30T02:42:15;6.70;99.90
10278;DHT22;5184;51.376;7.148;2024-01-30T02:44:42;6.70;99.90
10278;DHT22;5184;51.376;7.148;2024-01-30T02:47:09;6.70;99.90
10278;DHT22;5184;51.376;7.148;2024-01-30T02:49:36;6.60;99.90
10278;DHT22;5184;51.376;7.148;2024-01-30T02:52:02;6.60;99.90
10278;DHT22;5184;51.376;7.148;2024-01-30T02:54:29;6.60;99.90
10278;DHT22;5184;51.376;7.148;2024-01-30T02:56:56;6.60;99.90
10278;DHT22;5184;51.376;7.148;2024-01-30T02:59:22;6.60;99.90
10278;DHT22;5184;51.376;7.148;2024-01-30T03:01:50;6.60;99.90
10278;DHT22;5184;51.376;7.148;2024-01-30T03:04:16;6.60;99.90
10278;DHT22;5184;51.376;7.148;2024-01-30T03:06:45;6.60;99.90
10278;DHT22;5184;51.376;7.148;2024-01-30T03:09:11;6.60;99.90
10278;DHT22;5184;51.376;7.148;2024-01-30T03:11:39;6.70;99.90
10278;DHT22;5184;51.376;7.148;2024-01-30T03:14:06;6.60;99.90
10278;DHT22;5184;51.376;7.148;2024-01-30T03:16:33;6.60;99.90
10278;DHT22;5184;51.376;7.148;2024-01-30T03:19:00;6.60;99.90
10278;DHT22;5184;51.376;7.148;2024-01-30T03:21:28;6.50;99.90
10278;DHT22;5184;51.376;7.148;2024-01-30T03:23:54;6.50;99.90
10278;DHT22;5184;51.376;7.148;2024-01-30T03:26:21;6.50;99.90
10278;DHT22;5184;51.376;7.148;2024-01-30T03:28:48;6.50;99.90
10278;DHT22;5184;51.376;7.148;2024-01-30T03:31:15;6.50;99.90
10278;DHT22;5184;51.376;7.148;2024-01-30T03:33:41;6.50;99.90
10278;DHT22;5184;51.376;7.148;2024-01-30T03:36:08;6.60;99.90
10278;DHT22;5184;51.376;7.148;2024-01-30T03:38:35;6.60;99.90
10278;DHT22;5184;51.376;7.148;2024-01-30T03:41:02;6.60;99.90
10278;DHT22;5184;51.376;7.148;2024-01-30T03:43:28;6.60;99.90
10278;DHT22;5184;51.376;7.148;2024-01-30T03:45:55;6.60;99.90
10278;DHT22;5184;51.376;7.148;2024-01-30T03:48:22;6.60;99.90
10278;DHT22;5184;51.376;7.148;2024-01-30T03:50:48;6.60;99.90
10278;DHT22;5184;51.376;7.148;2024-01-30T03:53:15;9.30;99.90
10278;DHT22;5184;51.376;7.148;2024-01-30T03:55:42;6.60;99.90
10278;DHT22;5184;51.376;7.148;2024-01-30T03:58:09;6.70;99.90
10278;DHT22;5184;51.376;7.148;2024-01-30T04:00:35;6.70;99.90
10278;DHT22;5184;51.376;7.148;2024-01-30T04:03:02;6.80;99.90
10278;DHT22;5184;51.376;7.148;2024-01-30T04:05:29;6.90;99.90
10278;DHT22;5184;51.376;7.148;2024-01-30T04:07:55;6.90;99.90
10278;DHT22;5184;51.376;7.148;2024-01-30T04:10:22;6.80;99.90
10278;DHT22;5184;51.376;7.148;2024-01-30T04:12:48;6.80;99.90
10278;DHT22;5184;51.376;7.148;2024-01-30T04:15:15;6.80;99.90
10278;DHT22;5184;51.376;7.148;2024-01-30T04:17:41;6.80;99.90
10278;DHT22;5184;51.376;7.148;2024-01-30T04:20:13;6.90;99.90
10278;DHT22;5184;51.376;7.148;2024-01-30T04:22:39;6.80;99.90
10278;DHT22;5184;51.376;7.148;2024-01-30T04:25:06;6.90;99.90
10278;DHT22;5184;51.376;7.148;2024-01-30T04:27:33;6.90;99.90
10278;DHT22;5184;51.376;7.148;2024-01-30T04:29:59;6.90;99.90
10278;DHT22;5184;51.376;7.148;2024-01-30T04:32:26;7.00;99.90
10278;DHT22;5184;51.376;7.148;2024-01-30T04:34:53;7.00;99.90
10278;DHT22;5184;51.376;7.148;2024-01-30T04:37:21;6.90;99.90
10278;DHT22;5184;51.376;7.148;2024-01-30T04:39:48;6.90;99.90
10278;DHT22;5184;51.376;7.148;2024-01-30T04:42:16;4.90;99.90
10278;DHT22;5184;51.376;7.148;2024-01-30T04:44:42;6.80;99.90
10278;DHT22;5184;51.376;7.148;2024-01-30T04:47:09;6.80;99.90
10278;DHT22;5184;51.376;7.148;2024-01-30T04:49:35;6.80;99.90
10278;DHT22;5184;51.376;7.148;2024-01-30T04:52:02;6.80;99.90
10278;DHT22;5184;51.376;7.148;2024-01-30T04:54:29;6.60;99.90
10278;DHT22;5184;51.376;7.148;2024-01-30T04:56:57;6.60;99.90
10278;DHT22;5184;51.376;7.148;2024-01-30T04:59:24;6.60;99.90
10278;DHT22;5184;51.376;7.148;2024-01-30T05:01:51;6.60;99.90
10278;DHT22;5184;51.376;7.148;2024-01-30T05:04:17;6.70;99.90
10278;DHT22;5184;51.376;7.148;2024-01-30T05:06:44;6.70;99.90
10278;DHT22;5184;51.376;7.148;2024-01-30T05:09:10;6.90;99.90
10278;DHT22;5184;51.376;7.148;2024-01-30T05:11:38;7.00;99.90
10278;DHT22;5184;51.376;7.148;2024-01-30T05:14:05;7.10;99.90
10278;DHT22;5184;51.376;7.148;2024-01-30T05:16:31;7.10;99.90
10278;DHT22;5184;51.376;7.148;2024-01-30T05:18:58;7.10;99.90
10278;DHT22;5184;51.376;7.148;2024-01-30T05:21:25;7.00;99.90
10278;DHT22;5184;51.376;7.148;2024-01-30T05:23:52;7.00;99.90
10278;DHT22;5184;51.376;7.148;2024-01-30T05:26:20;6.90;99.90
10278;DHT22;5184;51.376;7.148;2024-01-30T05:28:46;6.90;99.90
10278;DHT22;5184;51.376;7.148;2024-01-30T05:31:13;6.90;99.90
10278;DHT22;5184;51.376;7.148;2024-01-30T05:33:40;6.90;99.90
10278;DHT22;5184;51.376;7.148;2024-01-30T05:36:06;6.90;99.90
10278;DHT22;5184;51.376;7.148;2024-01-30T05:38:33;6.80;99.90
10278;DHT22;5184;51.376;7.148;2024-01-30T05:41:00;6.60;99.90
10278;DHT22;5184;51.376;7.148;2024-01-30T05:43:26;6.60;99.90
10278;DHT22;5184;51.376;7.148;2024-01-30T05:45:54;6.50;99.90
10278;DHT22;5184;51.376;7.148;2024-01-30T05:48:20;6.40;99.90
10278;DHT22;5184;51.376;7.148;2024-01-30T05:50:47;6.40;99.90
10278;DHT22;5184;51.376;7.148;2024-01-30T05:53:13;6.30;99.90
10278;DHT22;5184;51.376;7.148;2024-01-30T05:55:40;6.30;99.90
10278;DHT22;5184;51.376;7.148;2024-01-30T05:58:07;6.30;99.90
10278;DHT22;5184;51.376;7.148;2024-01-30T06:00:34;6.30;99.90
10278;DHT22;5184;51.376;7.148;2024-01-30T06:03:01;6.30;99.90
10278;DHT22;5184;51.376;7.148;2024-01-30T06:05:27;6.30;99.90
10278;DHT22;5184;51.376;7.148;2024-01-30T06:07:54;6.50;99.90
10278;DHT22;5184;51.376;7.148;2024-01-30T06:10:21;6.70;99.90
10278;DHT22;5184;51.376;7.148;2024-01-30T06:12:47;6.80;99.90
10278;DHT22;5184;51.376;7.148;2024-01-30T06:15:14;6.80;99.90
10278;DHT22;5184;51.376;7.148;2024-01-30T06:17:40;6.80;99.90
10278;DHT22;5184;51.376;7.148;2024-01-30T06:20:08;6.80;99.90
10278;DHT22;5184;51.376;7.148;2024-01-30T06:22:35;6.80;99.90
10278;DHT22;5184;51.376;7.148;2024-01-30T06:25:03;6.70;99.90
10278;DHT22;5184;51.376;7.148;2024-01-30T06:27:29;6.70;99.90
10278;DHT22;5184;51.376;7.148;2024-01-30T06:29:56;6.60;99.90
10278;DHT22;5184;51.376;7.148;2024-01-30T06:32:22;6.60;99.90
10278;DHT22;5184;51.376;7.148;2024-01-30T06:34:49;6.60;99.90
10278;DHT22;5184;51.376;7.148;2024-01-30T06:37:16;6.50;99.90
10278;DHT22;5184;51.376;7.148;2024-01-30T06:39:44;6.50;99.90
10278;DHT22;5184;51.376;7.148;2024-01-30T06:42:11;6.50;99.90
10278;DHT22;5184;51.376;7.148;2024-01-30T06:44:38;6.50;99.90
10278;DHT22;5184;51.376;7.148;2024-01-30T06:47:05;6.40;99.90
10278;DHT22;5184;51.376;7.148;2024-01-30T06:49:32;6.50;99.90
10278;DHT22;5184;51.376;7.148;2024-01-30T06:51:58;6.60;99.90
10278;DHT22;5184;51.376;7.148;2024-01-30T06:54:25;6.70;99.90
10278;DHT22;5184;51.376;7.148;2024-01-30T06:56:51;6.70;99.90
10278;DHT22;5184;51.376;7.148;2024-01-30T06:59:18;6.70;99.90
10278;DHT22;5184;51.376;7.148;2024-01-30T07:01:45;6.90;99.90
10278;DHT22;5184;51.376;7.148;2024-01-30T07:04:11;7.00;99.90
10278;DHT22;5184;51.376;7.148;2024-01-30T07:06:38;7.10;99.90
10278;DHT22;5184;51.376;7.148;2024-01-30T07:09:05;7.20;99.90
10278;DHT22;5184;51.376;7.148;2024-01-30T07:11:32;7.20;99.90
10278;DHT22;5184;51.376;7.148;2024-01-30T07:13:58;7.30;99.90
10278;DHT22;5184;51.376;7.148;2024-01-30T07:16:25;7.30;99.90
10278;DHT22;5184;51.376;7.148;2024-01-30T07:18:52;7.40;99.90
10278;DHT22;5184;51.376;7.148;2024-01-30T07:21:19;7.50;99.90
10278;DHT22;5184;51.376;7.148;2024-01-30T07:23:45;7.60;99.90
10278;DHT22;5184;51.376;7.148;2024-01-30T07:26:12;7.60;99.90
10278;DHT22;5184;51.376;7.148;2024-01-30T07:28:39;7.60;99.90
10278;DHT22;5184;51.376;7.148;2024-01-30T07:31:05;7.50;99.90
10278;DHT22;5184;51.376;7.148;2024-01-30T07:33:33;7.60;99.90
10278;DHT22;5184;51.376;7.148;2024-01-30T07:35:59;7.50;99.90
10278;DHT22;5184;51.376;7.148;2024-01-30T07:38:26;7.50;99.90
10278;DHT22;5184;51.376;7.148;2024-01-30T07:40:52;7.60;99.90
10278;DHT22;5184;51.376;7.148;2024-01-30T07:43:20;7.70;99.90
10278;DHT22;5184;51.376;7.148;2024-01-30T07:45:47;7.80;99.90
10278;DHT22;5184;51.376;7.148;2024-01-30T07:48:14;7.90;99.90
10278;DHT22;5184;51.376;7.148;2024-01-30T07:50:41;7.90;99.90
10278;DHT22;5184;51.376;7.148;2024-01-30T07:53:08;7.90;99.90
10278;DHT22;5184;51.376;7.148;2024-01-30T07:55:34;8.00;99.90
10278;DHT22;5184;51.376;7.148;2024-01-30T07:58:01;8.00;99.90
10278;DHT22;5184;51.376;7.148;2024-01-30T08:00:27;8.00;99.90
10278;DHT22;5184;51.376;7.148;2024-01-30T08:02:54;8.00;99.90
10278;DHT22;5184;51.376;7.148;2024-01-30T08:05:21;8.10;99.90
10278;DHT22;5184;51.376;7.148;2024-01-30T08:07:47;8.10;99.90
10278;DHT22;5184;51.376;7.148;2024-01-30T08:10:14;8.20;99.90
10278;DHT22;5184;51.376;7.148;2024-01-30T08:12:41;8.20;99.90
10278;DHT22;5184;51.376;7.148;2024-01-30T08:15:07;8.20;99.90
10278;DHT22;5184;51.376;7.148;2024-01-30T08:17:34;8.30;99.90
10278;DHT22;5184;51.376;7.148;2024-01-30T08:20:01;8.30;99.90
10278;DHT22;5184;51.376;7.148;2024-01-30T08:22:28;8.50;99.90
10278;DHT22;5184;51.376;7.148;2024-01-30T08:24:55;8.50;99.90
10278;DHT22;5184;51.376;7.148;2024-01-30T08:27:21;8.60;99.90
10278;DHT22;5184;51.376;7.148;2024-01-30T08:29:48;8.60;99.90
10278;DHT22;5184;51.376;7.148;2024-01-30T08:32:14;8.70;99.90
10278;DHT22;5184;51.376;7.148;2024-01-30T08:34:41;8.70;99.90
10278;DHT22;5184;51.376;7.148;2024-01-30T08:37:08;8.80;99.90
10278;DHT22;5184;51.376;7.148;2024-01-30T08:39:37;8.90;99.90
10278;DHT22;5184;51.376;7.148;2024-01-30T08:42:02;8.80;99.90
10278;DHT22;5184;51.376;7.148;2024-01-30T08:44:29;8.90;99.90
10278;DHT22;5184;51.376;7.148;2024-01-30T08:46:56;8.90;99.90
10278;DHT22;5184;51.376;7.148;2024-01-30T08:49:22;9.00;99.90
10278;DHT22;5184;51.376;7.148;2024-01-30T08:51:50;9.10;99.90
10278;DHT22;5184;51.376;7.148;2024-01-30T08:54:17;9.20;99.90
10278;DHT22;5184;51.376;7.148;2024-01-30T08:56:44;9.20;99.90
10278;DHT22;5184;51.376;7.148;2024-01-30T08:59:11;9.20;99.90
10278;DHT22;5184;51.376;7.148;2024-01-30T09:01:37;9.20;99.90
10278;DHT22;5184;51.376;7.148;2024-01-30T09:04:04;9.30;99.90
10278;DHT22;5184;51.376;7.148;2024-01-30T09:06:31;9.30;99.90
10278;DHT22;5184;51.376;7.148;2024-01-30T09:08:57;9.30;99.90
10278;DHT22;5184;51.376;7.148;2024-01-30T09:11:24;9.40;99.90
10278;DHT22;5184;51.376;7.148;2024-01-30T09:13:50;9.40;99.90
10278;DHT22;5184;51.376;7.148;2024-01-30T09:16:17;9.40;99.90
10278;DHT22;5184;51.376;7.148;2024-01-30T09:18:44;9.50;99.90
10278;DHT22;5184;51.376;7.148;2024-01-30T09:21:10;9.50;99.90
10278;DHT22;5184;51.376;7.148;2024-01-30T09:23:37;9.50;99.90
10278;DHT22;5184;51.376;7.148;2024-01-30T09:26:04;9.50;99.90
10278;DHT22;5184;51.376;7.148;2024-01-30T09:28:31;9.60;99.90
10278;DHT22;5184;51.376;7.148;2024-01-30T09:30:59;9.60;99.90
10278;DHT22;5184;51.376;7.148;2024-01-30T09:33:25;9.60;99.90
10278;DHT22;5184;51.376;7.148;2024-01-30T09:35:52;9.60;99.90
10278;DHT22;5184;51.376;7.148;2024-01-30T09:38:19;9.70;99.90
10278;DHT22;5184;51.376;7.148;2024-01-30T09:40:46;9.70;99.90
10278;DHT22;5184;51.376;7.148;2024-01-30T09:43:13;9.90;99.90
10278;DHT22;5184;51.376;7.148;2024-01-30T09:45:39;9.90;99.90
10278;DHT22;5184;51.376;7.148;2024-01-30T09:48:06;10.00;99.90
10278;DHT22;5184;51.376;7.148;2024-01-30T09:50:32;10.00;99.90
10278;DHT22;5184;51.376;7.148;2024-01-30T09:52:59;10.10;99.90
10278;DHT22;5184;51.376;7.148;2024-01-30T09:55:26;10.20;99.90
10278;DHT22;5184;51.376;7.148;2024-01-30T09:57:52;10.20;99.90
10278;DHT22;5184;51.376;7.148;2024-01-30T10:00:20;10.30;99.90
10278;DHT22;5184;51.376;7.148;2024-01-30T10:02:47;10.40;99.90
10278;DHT22;5184;51.376;7.148;2024-01-30T10:05:15;10.40;99.90
10278;DHT22;5184;51.376;7.148;2024-01-30T10:07:49;10.40;99.90
10278;DHT22;5184;51.376;7.148;2024-01-30T10:10:07;10.40;99.90
10278;DHT22;5184;51.376;7.148;2024-01-30T10:12:33;10.40;99.90
10278;DHT22;5184;51.376;7.148;2024-01-30T10:15:00;10.50;99.90
10278;DHT22;5184;51.376;7.148;2024-01-30T10:17:27;10.50;99.90
10278;DHT22;5184;51.376;7.148;2024-01-30T10:19:54;10.70;99.90
10278;DHT22;5184;51.376;7.148;2024-01-30T10:22:21;10.70;99.90
10278;DHT22;5184;51.376;7.148;2024-01-30T10:24:48;10.80;99.90
10278;DHT22;5184;51.376;7.148;2024-01-30T10:27:14;10.80;99.90
10278;DHT22;5184;51.376;7.148;2024-01-30T10:29:40;10.80;99.90
10278;DHT22;5184;51.376;7.148;2024-01-30T10:32:07;10.90;99.90
10278;DHT22;5184;51.376;7.148;2024-01-30T10:34:34;11.10;99.90
10278;DHT22;5184;51.376;7.148;2024-01-30T10:37:07;11.20;99.90
10278;DHT22;5184;51.376;7.148;2024-01-30T10:39:35;11.20;99.90
10278;DHT22;5184;51.376;7.148;2024-01-30T10:42:03;11.40;99.90
10278;DHT22;5184;51.376;7.148;2024-01-30T10:44:27;11.50;99.90
10278;DHT22;5184;51.376;7.148;2024-01-30T10:46:56;11.60;99.90
10278;DHT22;5184;51.376;7.148;2024-01-30T10:49:20;11.70;99.90
10278;DHT22;5184;51.376;7.148;2024-01-30T10:51:46;11.80;99.90
10278;DHT22;5184;51.376;7.148;2024-01-30T10:54:14;11.90;99.90
10278;DHT22;5184;51.376;7.148;2024-01-30T10:56:40;11.80;99.90
10278;DHT22;5184;51.376;7.148;2024-01-30T10:59:07;11.90;99.90
10278;DHT22;5184;51.376;7.148;2024-01-30T11:01:34;12.00;99.90
10278;DHT22;5184;51.376;7.148;2024-01-30T11:04:01;12.00;99.90
10278;DHT22;5184;51.376;7.148;2024-01-30T11:06:27;12.10;99.90
10278;DHT22;5184;51.376;7.148;2024-01-30T11:09:01;12.30;99.90
10278;DHT22;5184;51.376;7.148;2024-01-30T11:11:27;12.40;99.90
10278;DHT22;5184;51.376;7.148;2024-01-30T11:13:54;12.50;99.90
10278;DHT22;5184;51.376;7.148;2024-01-30T11:16:20;12.50;92.40
10278;DHT22;5184;51.376;7.148;2024-01-30T11:18:50;12.50;59.30
10278;DHT22;5184;51.376;7.148;2024-01-30T11:21:16;12.50;36.60
10278;DHT22;5184;51.376;7.148;2024-01-30T11:23:43;12.50;43.00
10278;DHT22;5184;51.376;7.148;2024-01-30T11:26:10;12.50;64.60
10278;DHT22;5184;51.376;7.148;2024-01-30T11:28:37;12.50;66.80
10278;DHT22;5184;51.376;7.148;2024-01-30T11:31:05;12.50;64.40
10278;DHT22;5184;51.376;7.148;2024-01-30T11:33:31;12.50;38.80
10278;DHT22;5184;51.376;7.148;2024-01-30T11:35:58;12.50;58.10
10278;DHT22;5184;51.376;7.148;2024-01-30T11:38:25;12.50;47.20
10278;DHT22;5184;51.376;7.148;2024-01-30T11:40:51;12.50;61.30
10278;DHT22;5184;51.376;7.148;2024-01-30T11:43:18;12.60;51.40
10278;DHT22;5184;51.376;7.148;2024-01-30T11:45:45;12.60;52.90
10278;DHT22;5184;51.376;7.148;2024-01-30T11:48:11;12.60;50.80
10278;DHT22;5184;51.376;7.148;2024-01-30T11:50:39;12.50;66.30
10278;DHT22;5184;51.376;7.148;2024-01-30T11:53:06;12.40;71.60
10278;DHT22;5184;51.376;7.148;2024-01-30T11:55:33;12.30;66.10
10278;DHT22;5184;51.376;7.148;2024-01-30T11:58:00;12.30;64.40
10278;DHT22;5184;51.376;7.148;2024-01-30T12:00:27;12.30;73.20
10278;DHT22;5184;51.376;7.148;2024-01-30T12:02:55;12.20;92.90
10278;DHT22;5184;51.376;7.148;2024-01-30T12:05:22;12.20;91.10
10278;DHT22;5184;51.376;7.148;2024-01-30T12:07:48;12.20;97.20
10278;DHT22;5184;51.376;7.148;2024-01-30T12:10:15;12.20;95.70
10278;DHT22;5184;51.376;7.148;2024-01-30T12:12:43;12.10;98.60
10278;DHT22;5184;51.376;7.148;2024-01-30T12:15:08;12.10;99.90
10278;DHT22;5184;51.376;7.148;2024-01-30T12:17:35;12.10;99.90
10278;DHT22;5184;51.376;7.148;2024-01-30T12:20:05;12.00;99.90
10278;DHT22;5184;51.376;7.148;2024-01-30T12:22:33;12.00;99.90
10278;DHT22;5184;51.376;7.148;2024-01-30T12:24:59;11.90;99.90
10278;DHT22;5184;51.376;7.148;2024-01-30T12:27:26;11.90;99.90
10278;DHT22;5184;51.376;7.148;2024-01-30T12:29:57;11.80;99.90
10278;DHT22;5184;51.376;7.148;2024-01-30T12:32:23;11.80;99.90
10278;DHT22;5184;51.376;7.148;2024-01-30T12:34:49;11.80;99.90
10278;DHT22;5184;51.376;7.148;2024-01-30T12:37:16;11.80;99.90
10278;DHT22;5184;51.376;7.148;2024-01-30T12:39:43;11.80;99.90
10278;DHT22;5184;51.376;7.148;2024-01-30T12:42:10;11.80;99.90
10278;DHT22;5184;51.376;7.148;2024-01-30T12:44:36;11.70;99.90
10278;DHT22;5184;51.376;7.148;2024-01-30T12:47:03;11.70;99.90
10278;DHT22;5184;51.376;7.148;2024-01-30T12:49:30;11.70;99.90
10278;DHT22;5184;51.376;7.148;2024-01-30T12:51:57;11.80;99.90
10278;DHT22;5184;51.376;7.148;2024-01-30T12:54:23;11.80;99.90
10278;DHT22;5184;51.376;7.148;2024-01-30T12:56:50;11.70;99.90
10278;DHT22;5184;51.376;7.148;2024-01-30T12:59:18;11.60;99.90
10278;DHT22;5184;51.376;7.148;2024-01-30T13:01:45;11.60;99.90
10278;DHT22;5184;51.376;7.148;2024-01-30T13:04:12;11.60;99.90
10278;DHT22;5184;51.376;7.148;2024-01-30T13:06:38;11.60;99.90
10278;DHT22;5184;51.376;7.148;2024-01-30T13:09:05;11.60;99.90
10278;DHT22;5184;51.376;7.148;2024-01-30T13:11:31;11.60;99.90
10278;DHT22;5184;51.376;7.148;2024-01-30T13:14:00;11.50;99.90
10278;DHT22;5184;51.376;7.148;2024-01-30T13:16:27;11.50;99.90
10278;DHT22;5184;51.376;7.148;2024-01-30T13:18:54;11.50;99.90
10278;DHT22;5184;51.376;7.148;2024-01-30T13:21:21;11.50;99.90
10278;DHT22;5184;51.376;7.148;2024-01-30T13:23:47;11.50;99.90
10278;DHT22;5184;51.376;7.148;2024-01-30T13:26:14;11.40;99.90
10278;DHT22;5184;51.376;7.148;2024-01-30T13:28:40;11.40;99.90
10278;DHT22;5184;51.376;7.148;2024-01-30T13:31:07;11.40;99.90
10278;DHT22;5184;51.376;7.148;2024-01-30T13:33:34;11.40;99.90
10278;DHT22;5184;51.376;7.148;2024-01-30T13:36:01;11.30;99.90
10278;DHT22;5184;51.376;7.148;2024-01-30T13:38:27;11.30;99.90
10278;DHT22;5184;51.376;7.148;2024-01-30T13:40:54;11.30;99.90
10278;DHT22;5184;51.376;7.148;2024-01-30T13:43:21;11.30;99.90
10278;DHT22;5184;51.376;7.148;2024-01-30T13:45:47;11.30;99.90
10278;DHT22;5184;51.376;7.148;2024-01-30T13:48:14;11.20;99.90
10278;DHT22;5184;51.376;7.148;2024-01-30T13:50:41;11.20;99.90
10278;DHT22;5184;51.376;7.148;2024-01-30T13:53:07;11.20;99.90
10278;DHT22;5184;51.376;7.148;2024-01-30T13:55:34;11.20;99.90
10278;DHT22;5184;51.376;7.148;2024-01-30T13:58:01;11.20;99.90
10278;DHT22;5184;51.376;7.148;2024-01-30T14:00:28;11.20;99.90
10278;DHT22;5184;51.376;7.148;2024-01-30T14:02:55;11.20;99.90
10278;DHT22;5184;51.376;7.148;2024-01-30T14:05:21;11.20;99.90
10278;DHT22;5184;51.376;7.148;2024-01-30T14:07:48;11.20;99.90
10278;DHT22;5184;51.376;7.148;2024-01-30T14:10:15;11.20;99.90
10278;DHT22;5184;51.376;7.148;2024-01-30T14:12:42;11.30;99.90
10278;DHT22;5184;51.376;7.148;2024-01-30T14:15:08;11.30;99.90
10278;DHT22;5184;51.376;7.148;2024-01-30T14:17:35;11.30;99.90
10278;DHT22;5184;51.376;7.148;2024-01-30T14:20:03;11.30;99.90
10278;DHT22;5184;51.376;7.148;2024-01-30T14:22:31;11.30;99.90
10278;DHT22;5184;51.376;7.148;2024-01-30T14:24:57;11.30;99.90
10278;DHT22;5184;51.376;7.148;2024-01-30T14:27:24;11.30;99.90
10278;DHT22;5184;51.376;7.148;2024-01-30T14:29:50;11.30;99.90
10278;DHT22;5184;51.376;7.148;2024-01-30T14:32:17;11.30;99.90
10278;DHT22;5184;51.376;7.148;2024-01-30T14:34:45;11.30;99.90
10278;DHT22;5184;51.376;7.148;2024-01-30T14:37:12;11.40;99.90
10278;DHT22;5184;51.376;7.148;2024-01-30T14:39:38;11.50;99.90
10278;DHT22;5184;51.376;7.148;2024-01-30T14:42:06;11.50;99.90
10278;DHT22;5184;51.376;7.148;2024-01-30T14:44:34;11.50;99.90
10278;DHT22;5184;51.376;7.148;2024-01-30T14:47:00;11.40;99.90
10278;DHT22;5184;51.376;7.148;2024-01-30T14:49:27;11.40;99.90
10278;DHT22;5184;51.376;7.148;2024-01-30T14:51:54;11.40;99.90
10278;DHT22;5184;51.376;7.148;2024-01-30T14:54:21;11.40;99.90
10278;DHT22;5184;51.376;7.148;2024-01-30T14:56:48;11.40;99.90
10278;DHT22;5184;51.376;7.148;2024-01-30T14:59:14;11.50;99.90
10278;DHT22;5184;51.376;7.148;2024-01-30T15:01:41;11.40;99.90
10278;DHT22;5184;51.376;7.148;2024-01-30T15:04:07;11.40;99.90
10278;DHT22;5184;51.376;7.148;2024-01-30T15:06:34;11.40;99.90
10278;DHT22;5184;51.376;7.148;2024-01-30T15:09:01;11.40;99.90
10278;DHT22;5184;51.376;7.148;2024-01-30T15:11:27;11.40;99.90
10278;DHT22;5184;51.376;7.148;2024-01-30T15:13:55;11.20;99.90
10278;DHT22;5184;51.376;7.148;2024-01-30T15:16:21;11.20;99.90
10278;DHT22;5184;51.376;7.148;2024-01-30T15:18:48;11.30;99.90
10278;DHT22;5184;51.376;7.148;2024-01-30T15:21:14;11.30;99.90
10278;DHT22;5184;51.376;7.148;2024-01-30T15:23:41;11.30;99.90
10278;DHT22;5184;51.376;7.148;2024-01-30T15:26:08;11.20;99.90
10278;DHT22;5184;51.376;7.148;2024-01-30T15:28:36;11.20;99.90
10278;DHT22;5184;51.376;7.148;2024-01-30T15:31:03;11.20;99.90
10278;DHT22;5184;51.376;7.148;2024-01-30T15:33:29;11.20;99.90
10278;DHT22;5184;51.376;7.148;2024-01-30T15:35:56;11.20;99.90
10278;DHT22;5184;51.376;7.148;2024-01-30T15:38:22;11.20;99.90
10278;DHT22;5184;51.376;7.148;2024-01-30T15:40:49;11.20;99.90
10278;DHT22;5184;51.376;7.148;2024-01-30T15:43:16;11.20;99.90
10278;DHT22;5184;51.376;7.148;2024-01-30T15:45:43;11.10;99.90
10278;DHT22;5184;51.376;7.148;2024-01-30T15:48:09;11.10;99.90
10278;DHT22;5184;51.376;7.148;2024-01-30T15:50:36;11.10;99.90